Wilson Algeciras — 9HA2471 — position and weather

sailwx.info

Track history (hours):
 
Tides and Currents Weather Stations Pressure Air Temp Water Temp Dewpoint Dewpoint Depression Visibility Wind Speed Wind Dir Waves Ship Positions

Wilson Algeciras

Last reported at 2018-Aug-19 10:18 UTC. Time now 2018-Aug-19 15:19 UTC.
Position N 37°51' E 015°57'.

Length 88 m; draft 3.1 m.

Type: Ship. MMSI: 248689000.

Date/timePositionNaut miles runAvg speedWind from/ knotsBaromVisibWave heightAir tempDewpointWater temp
2018-Aug-19 10:18N 37°51' E 015°57'3 9.7
2018-Aug-19 09:58N 37°51' E 015°52'5 9.6
2018-Aug-19 09:29N 37°51' E 015°46'5 9.8
2018-Aug-19 09:00N 37°51' E 015°40'4 8.5
2018-Aug-19 08:30N 37°54' E 015°36'510.2
2018-Aug-19 08:00N 37°59' E 015°34'6 9.9
2018-Aug-19 07:22N 38°05' E 015°34'4 9.9
2018-Aug-19 07:00N 38°09' E 015°35'6 9.9
2018-Aug-19 06:26N 38°14' E 015°36'4 7.8
2018-Aug-19 05:54N 38°18' E 015°39'510.3
2018-Aug-19 05:26N 38°22' E 015°35'410.2
2018-Aug-19 05:00N 38°25' E 015°31'510.3
2018-Aug-19 04:29N 38°29' E 015°26'610.2
2018-Aug-19 03:54N 38°33' E 015°21'510.0
2018-Aug-19 03:27N 38°36' E 015°17'6 9.9
2018-Aug-19 02:49N 38°41' E 015°12'139 9.9
2018-Aug-18 12:50N 40°23' E 013°10'610.1
2018-Aug-18 12:13N 40°28' E 013°04'710.0
2018-Aug-18 11:30N 40°33' E 012°58'10510.3
2018-Aug-18 01:17N 41°50' E 011°23'310.2
2018-Aug-18 01:00N 41°52' E 011°21'610.2
2018-Aug-18 00:24N 41°57' E 011°15'410.4
2018-Aug-18 00:00N 41°60' E 011°11'810.2
2018-Aug-17 23:15N 42°05' E 011°04'210.0
2018-Aug-17 23:00N 42°07' E 011°02'5 9.9
2018-Aug-17 22:30N 42°11' E 010°58'5 9.8
2018-Aug-17 22:00N 42°14' E 010°53'510.1
2018-Aug-17 21:30N 42°18' E 010°48'510.0
2018-Aug-17 21:00N 42°22' E 010°44'510.3
2018-Aug-17 20:30N 42°27' E 010°43'510.1
2018-Aug-17 20:00N 42°32' E 010°41'510.0
2018-Aug-17 19:30N 42°37' E 010°40'510.1
2018-Aug-17 19:00N 42°42' E 010°38'510.2
2018-Aug-17 18:30N 42°47' E 010°36'510.3
2018-Aug-17 18:00N 42°52' E 010°35'4 8.8
2018-Aug-17 17:30N 42°56' E 010°33'0 0.1
2018-Aug-17 14:23N 42°56' E 010°33'0 0.0
2018-Aug-17 13:26N 42°56' E 010°33'0 0.0
2018-Aug-17 12:41N 42°56' E 010°33'1 0.1
2018-Aug-17 03:06N 42°56' E 010°34'0 3.8
2018-Aug-17 03:01N 42°56' E 010°34'2 3.8
2018-Aug-17 02:28N 42°54' E 010°33'2 4.8
2018-Aug-17 01:58N 42°51' E 010°31'3 6.7
2018-Aug-17 01:30N 42°48' E 010°31'3 7.1
2018-Aug-17 01:00N 42°45' E 010°31'4 7.0
2018-Aug-17 00:30N 42°41' E 010°30'4 7.1
2018-Aug-16 23:56N 42°38' E 010°27'3 6.9
2018-Aug-16 23:31N 42°36' E 010°24'3 6.7
2018-Aug-16 23:00N 42°33' E 010°21'3 5.9
2018-Aug-16 22:31N 42°31' E 010°19'4 6.5
2018-Aug-16 21:53N 42°28' E 010°16'3 6.6
2018-Aug-16 21:30N 42°26' E 010°13'7 6.6
2018-Aug-16 20:30N 42°20' E 010°09'4 6.6
2018-Aug-16 19:54N 42°17' E 010°06'3 6.7
2018-Aug-16 19:30N 42°15' E 010°04'4 6.6
2018-Aug-16 18:56N 42°11' E 010°01'4 6.6
2018-Aug-16 18:17N 42°08' E 009°58'2 6.5
2018-Aug-16 18:00N 42°06' E 009°57'3 6.5
2018-Aug-16 17:30N 42°03' E 009°55'  
2018-Aug-14 04:33N 37°55' E 001°05'1 9.1
2018-Aug-14 04:29N 37°55' E 001°05'4 9.1
2018-Aug-14 04:00N 37°53' E 000°60'5 9.2
2018-Aug-14 03:27N 37°50' E 000°54'5 9.1
2018-Aug-14 02:57N 37°48' E 000°49'4 9.1
2018-Aug-14 02:27N 37°46' E 000°45'4 9.0
2018-Aug-14 02:00N 37°44' E 000°40'4 9.0
2018-Aug-14 01:30N 37°41' E 000°35'4 8.9
2018-Aug-14 01:00N 37°39' E 000°31'5 8.9
2018-Aug-14 00:30N 37°37' E 000°26'4 8.9
2018-Aug-14 00:00N 37°34' E 000°21'5 9.1
2018-Aug-13 23:30N 37°32' E 000°16'5 9.1
2018-Aug-13 23:00N 37°30' E 000°11'5 9.1
2018-Aug-13 22:30N 37°27' E 000°06'7 9.1
2018-Aug-13 21:41N 37°24' W 000°02'2 9.0
2018-Aug-13 21:30N 37°23' W 000°04'5 9.2
2018-Aug-13 21:00N 37°20' W 000°09'5 9.5
2018-Aug-13 20:31N 37°18' W 000°14'5 9.5
2018-Aug-13 20:00N 37°16' W 000°19'5 9.5
2018-Aug-13 19:29N 37°13' W 000°24'5 9.7
2018-Aug-13 19:00N 37°11' W 000°29'5 9.9
2018-Aug-13 18:29N 37°08' W 000°35'5 9.9
2018-Aug-13 18:00N 37°06' W 000°40'5 9.7
2018-Aug-13 17:30N 37°03' W 000°45'5 9.6
2018-Aug-13 17:00N 37°01' W 000°50'21810.3
2018-Aug-12 19:55N 35°59' W 005°10'410.8
2018-Aug-12 19:31N 35°59' W 005°15'612.4
2018-Aug-12 19:00N 35°58' W 005°23'813.8
2018-Aug-12 18:26N 35°56' W 005°32'612.6
2018-Aug-12 17:59N 35°54' W 005°39'713.4
2018-Aug-12 17:28N 35°54' W 005°48'9210.4
2018-Aug-12 08:39N 36°13' W 007°39'1 9.9
2018-Aug-12 08:30N 36°14' W 007°41'4 6.3
2018-Aug-12 07:56N 36°15' W 007°45'3 5.7
2018-Aug-12 07:25N 36°16' W 007°49'21 9.7
2018-Aug-12 05:14N 36°21' W 008°14'2 9.8
2018-Aug-12 04:59N 36°22' W 008°17'7 9.8
2018-Aug-12 04:17N 36°23' W 008°25'3 9.7
2018-Aug-12 04:00N 36°24' W 008°28'5 9.7
2018-Aug-12 03:30N 36°26' W 008°34'5 9.7
2018-Aug-12 03:00N 36°27' W 008°40'5 9.6
2018-Aug-12 02:30N 36°28' W 008°46'5 9.5
2018-Aug-12 02:00N 36°29' W 008°51'5 9.5
2018-Aug-12 01:31N 36°30' W 008°57'5 9.5
2018-Aug-12 01:01N 36°32' W 009°03'5 9.7
2018-Aug-12 00:30N 36°33' W 009°09'5 9.6
2018-Aug-12 00:00N 36°34' W 009°15'5 9.3
2018-Aug-11 23:31N 36°37' W 009°19'5 9.3
2018-Aug-11 23:01N 36°40' W 009°23'5 9.5
2018-Aug-11 22:31N 36°44' W 009°27'5 9.4
2018-Aug-11 22:01N 36°47' W 009°31'5 9.1
2018-Aug-11 21:30N 36°52' W 009°33'5 9.8
2018-Aug-11 21:01N 36°56' W 009°34'5 9.7
2018-Aug-11 20:31N 37°01' W 009°36'510.0
2018-Aug-11 20:01N 37°06' W 009°37'5 9.9
2018-Aug-11 19:30N 37°11' W 009°39'5 9.5
2018-Aug-11 19:01N 37°15' W 009°40'510.0
2018-Aug-11 18:30N 37°20' W 009°41'510.0
2018-Aug-11 18:00N 37°25' W 009°43'5 9.8
2018-Aug-11 17:31N 37°30' W 009°44'5 9.7
2018-Aug-11 17:01N 37°35' W 009°45'5 9.7
2018-Aug-11 16:30N 37°39' W 009°47'5 9.8
2018-Aug-11 16:00N 37°44' W 009°48'5 9.9
2018-Aug-11 15:31N 37°49' W 009°50'510.3
2018-Aug-11 15:00N 37°54' W 009°51'510.2
2018-Aug-11 14:31N 37°59' W 009°53'5 9.9
2018-Aug-11 14:01N 38°04' W 009°54'5 9.8
2018-Aug-11 13:30N 38°09' W 009°55'5 9.9
2018-Aug-11 13:00N 38°13' W 009°57'5 9.9
2018-Aug-11 12:31N 38°18' W 009°58'5 9.9
2018-Aug-11 12:01N 38°23' W 009°60'510.3
2018-Aug-11 11:31N 38°28' W 010°01'510.2
2018-Aug-11 11:01N 38°33' W 010°03'5 9.8
2018-Aug-11 10:30N 38°38' W 010°04'5 9.8
2018-Aug-11 10:00N 38°43' W 010°05'510.1
2018-Aug-11 09:30N 38°48' W 010°05'5 9.8
2018-Aug-11 09:01N 38°52' W 010°05'5 9.9
2018-Aug-11 08:30N 38°57' W 010°05'510.4
2018-Aug-11 08:00N 39°03' W 010°05'510.3
2018-Aug-11 07:30N 39°08' W 010°05'510.0
2018-Aug-11 07:00N 39°13' W 010°05'5 9.6
2018-Aug-11 06:28N 39°18' W 010°05'4 9.5
2018-Aug-11 06:01N 39°22' W 010°05'5 9.5
2018-Aug-11 05:27N 39°28' W 010°05'5 9.6
2018-Aug-11 04:58N 39°32' W 010°05'6 9.5
2018-Aug-11 04:23N 39°38' W 010°05'5 9.6
2018-Aug-11 03:54N 39°42' W 010°05'5 9.4
2018-Aug-11 03:21N 39°48' W 010°05'3 9.4
2018-Aug-11 03:00N 39°51' W 010°05'5 9.3
2018-Aug-11 02:30N 39°56' W 010°05'  
Track history (hours):
 
Tides and Currents Weather Stations Pressure Air Temp Water Temp Dewpoint Dewpoint Depression Visibility Wind Speed Wind Dir Waves Ship Positions

Wilson Algeciras

Last reported at 2018-Aug-19 10:18 UTC. Time now 2018-Aug-19 15:19 UTC.
Position N 37°51' E 015°57'.

Length 88 m; draft 3.1 m.

Type: Ship. MMSI: 248689000.

Date/timePositionNaut miles runAvg speedWind from/ knotsBaromVisibWave heightAir tempDewpointWater temp
2018-Aug-19 10:18N 37°51' E 015°57'3 9.7
2018-Aug-19 09:58N 37°51' E 015°52'5 9.6
2018-Aug-19 09:29N 37°51' E 015°46'5 9.8
2018-Aug-19 09:00N 37°51' E 015°40'4 8.5
2018-Aug-19 08:30N 37°54' E 015°36'510.2
2018-Aug-19 08:00N 37°59' E 015°34'6 9.9
2018-Aug-19 07:22N 38°05' E 015°34'4 9.9
2018-Aug-19 07:00N 38°09' E 015°35'6 9.9
2018-Aug-19 06:26N 38°14' E 015°36'4 7.8
2018-Aug-19 05:54N 38°18' E 015°39'510.3
2018-Aug-19 05:26N 38°22' E 015°35'410.2
2018-Aug-19 05:00N 38°25' E 015°31'510.3
2018-Aug-19 04:29N 38°29' E 015°26'610.2
2018-Aug-19 03:54N 38°33' E 015°21'510.0
2018-Aug-19 03:27N 38°36' E 015°17'6 9.9
2018-Aug-19 02:49N 38°41' E 015°12'139 9.9
2018-Aug-18 12:50N 40°23' E 013°10'610.1
2018-Aug-18 12:13N 40°28' E 013°04'710.0
2018-Aug-18 11:30N 40°33' E 012°58'10510.3
2018-Aug-18 01:17N 41°50' E 011°23'310.2
2018-Aug-18 01:00N 41°52' E 011°21'610.2
2018-Aug-18 00:24N 41°57' E 011°15'410.4
2018-Aug-18 00:00N 41°60' E 011°11'810.2
2018-Aug-17 23:15N 42°05' E 011°04'210.0
2018-Aug-17 23:00N 42°07' E 011°02'5 9.9
2018-Aug-17 22:30N 42°11' E 010°58'5 9.8
2018-Aug-17 22:00N 42°14' E 010°53'510.1
2018-Aug-17 21:30N 42°18' E 010°48'510.0
2018-Aug-17 21:00N 42°22' E 010°44'510.3
2018-Aug-17 20:30N 42°27' E 010°43'510.1
2018-Aug-17 20:00N 42°32' E 010°41'510.0
2018-Aug-17 19:30N 42°37' E 010°40'510.1
2018-Aug-17 19:00N 42°42' E 010°38'510.2
2018-Aug-17 18:30N 42°47' E 010°36'510.3
2018-Aug-17 18:00N 42°52' E 010°35'4 8.8
2018-Aug-17 17:30N 42°56' E 010°33'0 0.1
2018-Aug-17 14:23N 42°56' E 010°33'0 0.0
2018-Aug-17 13:26N 42°56' E 010°33'0 0.0
2018-Aug-17 12:41N 42°56' E 010°33'1 0.1
2018-Aug-17 03:06N 42°56' E 010°34'0 3.8
2018-Aug-17 03:01N 42°56' E 010°34'2 3.8
2018-Aug-17 02:28N 42°54' E 010°33'2 4.8
2018-Aug-17 01:58N 42°51' E 010°31'3 6.7
2018-Aug-17 01:30N 42°48' E 010°31'3 7.1
2018-Aug-17 01:00N 42°45' E 010°31'4 7.0
2018-Aug-17 00:30N 42°41' E 010°30'4 7.1
2018-Aug-16 23:56N 42°38' E 010°27'3 6.9
2018-Aug-16 23:31N 42°36' E 010°24'3 6.7
2018-Aug-16 23:00N 42°33' E 010°21'3 5.9
2018-Aug-16 22:31N 42°31' E 010°19'4 6.5
2018-Aug-16 21:53N 42°28' E 010°16'3 6.6
2018-Aug-16 21:30N 42°26' E 010°13'7 6.6
2018-Aug-16 20:30N 42°20' E 010°09'4 6.6
2018-Aug-16 19:54N 42°17' E 010°06'3 6.7
2018-Aug-16 19:30N 42°15' E 010°04'4 6.6
2018-Aug-16 18:56N 42°11' E 010°01'4 6.6
2018-Aug-16 18:17N 42°08' E 009°58'2 6.5
2018-Aug-16 18:00N 42°06' E 009°57'3 6.5
2018-Aug-16 17:30N 42°03' E 009°55'  
2018-Aug-14 04:33N 37°55' E 001°05'1 9.1
2018-Aug-14 04:29N 37°55' E 001°05'4 9.1
2018-Aug-14 04:00N 37°53' E 000°60'5 9.2
2018-Aug-14 03:27N 37°50' E 000°54'5 9.1
2018-Aug-14 02:57N 37°48' E 000°49'4 9.1
2018-Aug-14 02:27N 37°46' E 000°45'4 9.0
2018-Aug-14 02:00N 37°44' E 000°40'4 9.0
2018-Aug-14 01:30N 37°41' E 000°35'4 8.9
2018-Aug-14 01:00N 37°39' E 000°31'5 8.9
2018-Aug-14 00:30N 37°37' E 000°26'4 8.9
2018-Aug-14 00:00N 37°34' E 000°21'5 9.1
2018-Aug-13 23:30N 37°32' E 000°16'5 9.1
2018-Aug-13 23:00N 37°30' E 000°11'5 9.1
2018-Aug-13 22:30N 37°27' E 000°06'7 9.1
2018-Aug-13 21:41N 37°24' W 000°02'2 9.0
2018-Aug-13 21:30N 37°23' W 000°04'5 9.2
2018-Aug-13 21:00N 37°20' W 000°09'5 9.5
2018-Aug-13 20:31N 37°18' W 000°14'5 9.5
2018-Aug-13 20:00N 37°16' W 000°19'5 9.5
2018-Aug-13 19:29N 37°13' W 000°24'5 9.7
2018-Aug-13 19:00N 37°11' W 000°29'5 9.9
2018-Aug-13 18:29N 37°08' W 000°35'5 9.9
2018-Aug-13 18:00N 37°06' W 000°40'5 9.7
2018-Aug-13 17:30N 37°03' W 000°45'5 9.6
2018-Aug-13 17:00N 37°01' W 000°50'21810.3
2018-Aug-12 19:55N 35°59' W 005°10'410.8
2018-Aug-12 19:31N 35°59' W 005°15'612.4
2018-Aug-12 19:00N 35°58' W 005°23'813.8
2018-Aug-12 18:26N 35°56' W 005°32'612.6
2018-Aug-12 17:59N 35°54' W 005°39'713.4
2018-Aug-12 17:28N 35°54' W 005°48'9210.4
2018-Aug-12 08:39N 36°13' W 007°39'1 9.9
2018-Aug-12 08:30N 36°14' W 007°41'4 6.3
2018-Aug-12 07:56N 36°15' W 007°45'3 5.7
2018-Aug-12 07:25N 36°16' W 007°49'21 9.7
2018-Aug-12 05:14N 36°21' W 008°14'2 9.8
2018-Aug-12 04:59N 36°22' W 008°17'7 9.8
2018-Aug-12 04:17N 36°23' W 008°25'3 9.7
2018-Aug-12 04:00N 36°24' W 008°28'5 9.7
2018-Aug-12 03:30N 36°26' W 008°34'5 9.7
2018-Aug-12 03:00N 36°27' W 008°40'5 9.6
2018-Aug-12 02:30N 36°28' W 008°46'5 9.5
2018-Aug-12 02:00N 36°29' W 008°51'5 9.5
2018-Aug-12 01:31N 36°30' W 008°57'5 9.5
2018-Aug-12 01:01N 36°32' W 009°03'5 9.7
2018-Aug-12 00:30N 36°33' W 009°09'5 9.6
2018-Aug-12 00:00N 36°34' W 009°15'5 9.3
2018-Aug-11 23:31N 36°37' W 009°19'5 9.3
2018-Aug-11 23:01N 36°40' W 009°23'5 9.5
2018-Aug-11 22:31N 36°44' W 009°27'5 9.4
2018-Aug-11 22:01N 36°47' W 009°31'5 9.1
2018-Aug-11 21:30N 36°52' W 009°33'5 9.8
2018-Aug-11 21:01N 36°56' W 009°34'5 9.7
2018-Aug-11 20:31N 37°01' W 009°36'510.0
2018-Aug-11 20:01N 37°06' W 009°37'5 9.9
2018-Aug-11 19:30N 37°11' W 009°39'5 9.5
2018-Aug-11 19:01N 37°15' W 009°40'510.0
2018-Aug-11 18:30N 37°20' W 009°41'510.0
2018-Aug-11 18:00N 37°25' W 009°43'5 9.8
2018-Aug-11 17:31N 37°30' W 009°44'5 9.7
2018-Aug-11 17:01N 37°35' W 009°45'5 9.7
2018-Aug-11 16:30N 37°39' W 009°47'5 9.8
2018-Aug-11 16:00N 37°44' W 009°48'5 9.9
2018-Aug-11 15:31N 37°49' W 009°50'510.3
2018-Aug-11 15:00N 37°54' W 009°51'510.2
2018-Aug-11 14:31N 37°59' W 009°53'5 9.9
2018-Aug-11 14:01N 38°04' W 009°54'5 9.8
2018-Aug-11 13:30N 38°09' W 009°55'5 9.9
2018-Aug-11 13:00N 38°13' W 009°57'5 9.9
2018-Aug-11 12:31N 38°18' W 009°58'5 9.9
2018-Aug-11 12:01N 38°23' W 009°60'510.3
2018-Aug-11 11:31N 38°28' W 010°01'510.2
2018-Aug-11 11:01N 38°33' W 010°03'5 9.8
2018-Aug-11 10:30N 38°38' W 010°04'5 9.8
2018-Aug-11 10:00N 38°43' W 010°05'510.1
2018-Aug-11 09:30N 38°48' W 010°05'5 9.8
2018-Aug-11 09:01N 38°52' W 010°05'5 9.9
2018-Aug-11 08:30N 38°57' W 010°05'510.4
2018-Aug-11 08:00N 39°03' W 010°05'510.3
2018-Aug-11 07:30N 39°08' W 010°05'510.0
2018-Aug-11 07:00N 39°13' W 010°05'5 9.6
2018-Aug-11 06:28N 39°18' W 010°05'4 9.5
2018-Aug-11 06:01N 39°22' W 010°05'5 9.5
2018-Aug-11 05:27N 39°28' W 010°05'5 9.6
2018-Aug-11 04:58N 39°32' W 010°05'6 9.5
2018-Aug-11 04:23N 39°38' W 010°05'5 9.6
2018-Aug-11 03:54N 39°42' W 010°05'5 9.4
2018-Aug-11 03:21N 39°48' W 010°05'3 9.4
2018-Aug-11 03:00N 39°51' W 010°05'5 9.3
2018-Aug-11 02:30N 39°56' W 010°05'  

Dump ship's entire track history